createdAt,value
2017-03-20T00:01:00.762Z,0
2017-03-20T00:02:08.849Z,0
2017-03-20T00:03:16.967Z,0
2017-03-20T00:04:25.035Z,0
2017-03-20T00:05:33.112Z,0
2017-03-20T00:06:41.209Z,0
2017-03-20T00:07:49.292Z,0
2017-03-20T00:08:57.379Z,0
2017-03-20T00:10:05.467Z,0
2017-03-20T00:11:13.556Z,0
2017-03-20T00:12:21.643Z,0
2017-03-20T00:13:29.738Z,0
2017-03-20T00:14:37.825Z,0
2017-03-20T00:15:45.917Z,0
2017-03-20T00:16:54.005Z,0
2017-03-20T00:18:02.091Z,0
2017-03-20T00:19:10.182Z,0
2017-03-20T00:20:18.267Z,0
2017-03-20T00:21:26.354Z,0
2017-03-20T00:22:34.444Z,0
2017-03-20T00:23:42.532Z,0
2017-03-20T00:24:50.625Z,0
2017-03-20T00:25:58.705Z,0
2017-03-20T00:27:06.796Z,0
2017-03-20T00:28:14.883Z,0
2017-03-20T00:29:22.968Z,0
2017-03-20T00:30:31.064Z,0
2017-03-20T00:31:39.156Z,0
2017-03-20T00:32:47.263Z,0
2017-03-20T00:33:55.338Z,0
2017-03-20T00:35:03.428Z,0
2017-03-20T00:36:11.515Z,0
2017-03-20T00:37:19.603Z,0
2017-03-20T00:38:27.690Z,0
2017-03-20T00:39:35.780Z,0
2017-03-20T00:40:43.865Z,0
2017-03-20T00:41:51.949Z,0
2017-03-20T00:43:00.040Z,0
2017-03-20T00:44:08.132Z,0
2017-03-20T00:45:16.218Z,0
2017-03-20T00:46:24.311Z,0
2017-03-20T00:47:32.397Z,0
2017-03-20T00:48:40.486Z,0
2017-03-20T00:49:48.669Z,0
2017-03-20T00:50:56.657Z,0
2017-03-20T00:52:04.745Z,0
2017-03-20T00:53:12.829Z,0
2017-03-20T00:54:20.922Z,0
2017-03-20T00:55:29.010Z,0
2017-03-20T00:56:37.091Z,0
2017-03-20T00:57:45.179Z,0
2017-03-20T00:58:53.275Z,0
2017-03-20T01:00:01.356Z,0
2017-03-20T01:01:09.448Z,0
2017-03-20T01:02:17.534Z,0
2017-03-20T01:03:25.627Z,0
2017-03-20T01:04:33.705Z,0
2017-03-20T01:05:41.789Z,0
2017-03-20T01:06:49.880Z,0
2017-03-20T01:07:57.966Z,0
2017-03-20T01:09:06.053Z,0
2017-03-20T01:10:14.151Z,0
2017-03-20T01:11:22.231Z,0
2017-03-20T01:12:30.318Z,0
2017-03-20T01:13:38.403Z,0
2017-03-20T01:14:46.492Z,0
2017-03-20T01:15:54.582Z,0
2017-03-20T01:17:02.669Z,0
2017-03-20T01:18:10.759Z,0
2017-03-20T01:19:18.845Z,0
2017-03-20T01:20:26.930Z,0
2017-03-20T01:21:35.018Z,0
2017-03-20T01:22:43.107Z,0
2017-03-20T01:23:51.198Z,0
2017-03-20T01:24:59.282Z,0
2017-03-20T01:26:07.371Z,0
2017-03-20T01:27:15.466Z,0
2017-03-20T01:28:23.551Z,0
2017-03-20T01:29:31.639Z,0
2017-03-20T01:30:39.725Z,0
2017-03-20T01:31:47.809Z,0
2017-03-20T01:32:55.898Z,0
2017-03-20T01:34:03.987Z,0
2017-03-20T01:35:12.076Z,0
2017-03-20T01:36:20.162Z,0
2017-03-20T01:37:28.253Z,0
2017-03-20T01:38:36.343Z,0
2017-03-20T01:39:44.431Z,0
2017-03-20T01:40:52.523Z,0
2017-03-20T01:42:00.604Z,0
2017-03-20T01:43:08.697Z,0
2017-03-20T01:44:16.780Z,0
2017-03-20T01:45:24.870Z,0
2017-03-20T01:46:32.956Z,0
2017-03-20T01:47:41.044Z,0
2017-03-20T01:48:49.127Z,0
2017-03-20T01:49:57.218Z,0
2017-03-20T01:51:05.310Z,0
2017-03-20T01:52:13.389Z,0
2017-03-20T01:53:21.481Z,0
2017-03-20T01:54:29.569Z,0
2017-03-20T01:55:37.652Z,0
2017-03-20T01:56:45.740Z,0
2017-03-20T01:57:53.832Z,0
2017-03-20T01:59:01.918Z,0
2017-03-20T02:00:10.000Z,0
2017-03-20T02:01:18.089Z,0
2017-03-20T02:02:26.180Z,0
2017-03-20T02:03:34.267Z,0
2017-03-20T02:04:42.352Z,0
2017-03-20T02:05:50.441Z,0
2017-03-20T02:06:58.529Z,0
2017-03-20T02:08:06.612Z,0
2017-03-20T02:09:14.704Z,0
2017-03-20T02:10:22.795Z,0
2017-03-20T02:11:30.878Z,0
2017-03-20T02:12:38.964Z,0
2017-03-20T02:13:47.055Z,0
2017-03-20T02:14:55.168Z,0
2017-03-20T02:16:03.229Z,0
2017-03-20T02:17:11.322Z,0
2017-03-20T02:18:19.413Z,0
2017-03-20T02:19:27.500Z,0
2017-03-20T02:20:35.586Z,0
2017-03-20T02:21:43.675Z,0
2017-03-20T02:22:51.765Z,0
2017-03-20T02:23:59.851Z,0
2017-03-20T02:25:07.939Z,0
2017-03-20T02:26:16.030Z,0
2017-03-20T02:27:24.118Z,0
2017-03-20T02:28:32.204Z,0
2017-03-20T02:29:40.291Z,0
2017-03-20T02:30:48.387Z,0
2017-03-20T02:31:56.468Z,0
2017-03-20T02:33:04.560Z,0
2017-03-20T02:34:12.647Z,0
2017-03-20T02:35:20.729Z,0
2017-03-20T02:36:28.825Z,0
2017-03-20T02:37:36.912Z,0
2017-03-20T02:38:44.995Z,0
2017-03-20T02:39:53.081Z,0
2017-03-20T02:41:01.170Z,0
2017-03-20T02:42:09.256Z,0
2017-03-20T02:43:17.338Z,0
2017-03-20T02:44:25.437Z,0
2017-03-20T02:45:33.523Z,0
2017-03-20T02:46:41.642Z,0
2017-03-20T02:47:49.695Z,0
2017-03-20T02:48:57.787Z,0
2017-03-20T02:50:05.869Z,0
2017-03-20T02:51:13.959Z,0
2017-03-20T02:52:22.048Z,0
2017-03-20T02:53:30.132Z,0
2017-03-20T02:54:38.224Z,0
2017-03-20T02:55:46.310Z,0
2017-03-20T02:56:54.402Z,0
2017-03-20T02:58:02.487Z,0
2017-03-20T02:59:10.572Z,0
2017-03-20T03:00:18.662Z,0
2017-03-20T03:01:26.764Z,0
2017-03-20T03:02:34.842Z,0
2017-03-20T03:03:42.925Z,0
2017-03-20T03:04:51.016Z,0
2017-03-20T03:05:59.101Z,0
2017-03-20T03:07:07.185Z,0
2017-03-20T03:08:15.277Z,0
2017-03-20T03:09:23.364Z,0
2017-03-20T03:10:31.446Z,0
2017-03-20T03:11:39.540Z,0
2017-03-20T03:12:47.631Z,0
2017-03-20T03:13:55.719Z,0
2017-03-20T03:15:03.806Z,0
2017-03-20T03:16:11.896Z,0
2017-03-20T03:17:19.980Z,0
2017-03-20T03:18:28.074Z,0
2017-03-20T03:19:36.150Z,0
2017-03-20T03:20:44.238Z,0
2017-03-20T03:21:52.324Z,0
2017-03-20T03:23:00.407Z,0
2017-03-20T03:24:08.496Z,0
2017-03-20T03:25:16.584Z,0
2017-03-20T03:26:24.670Z,0
2017-03-20T03:27:32.754Z,0
2017-03-20T03:28:40.845Z,0
2017-03-20T03:29:48.931Z,0
2017-03-20T03:30:57.013Z,0
2017-03-20T03:32:05.104Z,0
2017-03-20T03:33:13.189Z,0
2017-03-20T03:34:21.270Z,0
2017-03-20T03:35:29.359Z,0
2017-03-20T03:36:37.448Z,0
2017-03-20T03:37:45.535Z,0
2017-03-20T03:38:53.621Z,0
2017-03-20T03:40:01.702Z,0
2017-03-20T03:41:09.798Z,0
2017-03-20T03:42:17.878Z,0
2017-03-20T03:43:25.968Z,0
2017-03-20T03:44:34.055Z,0
2017-03-20T03:45:42.181Z,0
2017-03-20T03:46:50.226Z,0
2017-03-20T03:47:58.316Z,0
2017-03-20T03:49:06.400Z,0
2017-03-20T03:50:14.488Z,0
2017-03-20T03:51:22.576Z,0
2017-03-20T03:52:30.662Z,0
2017-03-20T03:53:38.748Z,0
2017-03-20T03:54:46.833Z,0
2017-03-20T03:55:54.918Z,0
2017-03-20T03:57:03.007Z,0
2017-03-20T03:58:11.089Z,0
2017-03-20T03:59:19.185Z,0
2017-03-20T04:00:27.265Z,0
2017-03-20T04:01:35.353Z,0
2017-03-20T04:02:43.433Z,0
2017-03-20T04:03:51.534Z,0
2017-03-20T04:04:59.624Z,0
2017-03-20T04:06:07.706Z,0
2017-03-20T04:07:15.795Z,0
2017-03-20T04:08:23.881Z,0
2017-03-20T04:09:31.976Z,0
2017-03-20T04:10:40.050Z,0
2017-03-20T04:11:48.139Z,0
2017-03-20T04:12:56.227Z,0
2017-03-20T04:14:04.317Z,0
2017-03-20T04:15:12.398Z,0
2017-03-20T04:16:20.486Z,0
2017-03-20T04:17:28.578Z,0
2017-03-20T04:18:36.661Z,0
2017-03-20T04:19:44.751Z,0
2017-03-20T04:20:52.838Z,0
2017-03-20T04:22:00.921Z,0
2017-03-20T04:23:09.009Z,0
2017-03-20T04:24:17.099Z,0
2017-03-20T04:25:25.191Z,0
2017-03-20T04:26:33.274Z,0
2017-03-20T04:27:41.362Z,0
2017-03-20T04:28:49.447Z,0
2017-03-20T04:29:57.533Z,0
2017-03-20T04:31:05.623Z,0
2017-03-20T04:32:13.711Z,0
2017-03-20T04:33:21.792Z,0
2017-03-20T04:34:29.881Z,0
2017-03-20T04:35:37.971Z,0
2017-03-20T04:36:46.065Z,0
2017-03-20T04:37:54.138Z,0
2017-03-20T04:39:02.226Z,0
2017-03-20T04:40:10.318Z,0
2017-03-20T04:41:18.402Z,0
2017-03-20T04:42:26.520Z,0
2017-03-20T04:43:34.583Z,0
2017-03-20T04:44:42.666Z,0
2017-03-20T04:45:50.752Z,0
2017-03-20T04:46:58.841Z,0
2017-03-20T04:48:06.928Z,0
2017-03-20T04:49:15.016Z,0
2017-03-20T04:50:23.103Z,0
2017-03-20T04:51:31.184Z,0
2017-03-20T04:52:39.277Z,0
2017-03-20T04:53:47.360Z,0
2017-03-20T04:54:55.454Z,0
2017-03-20T04:56:03.539Z,0
2017-03-20T04:57:11.621Z,0
2017-03-20T04:58:19.715Z,0
2017-03-20T04:59:27.799Z,0
2017-03-20T05:00:35.887Z,0
2017-03-20T05:01:43.973Z,0
2017-03-20T05:02:52.068Z,0
2017-03-20T05:04:00.154Z,0
2017-03-20T05:05:08.237Z,0
2017-03-20T05:06:16.328Z,0
2017-03-20T05:07:24.428Z,0
2017-03-20T05:08:32.497Z,0
2017-03-20T05:09:40.586Z,0
2017-03-20T05:10:48.677Z,0
2017-03-20T05:11:56.760Z,0
2017-03-20T05:13:04.841Z,0
2017-03-20T05:14:12.932Z,0
2017-03-20T05:15:21.018Z,0
2017-03-20T05:16:29.106Z,0
2017-03-20T05:17:37.194Z,0
2017-03-20T05:18:45.276Z,0
2017-03-20T05:19:53.360Z,0
2017-03-20T05:21:01.446Z,0
2017-03-20T05:22:09.536Z,0
2017-03-20T05:23:17.623Z,0
2017-03-20T05:24:25.707Z,0
2017-03-20T05:25:33.791Z,0
2017-03-20T05:26:41.883Z,0
2017-03-20T05:27:49.967Z,0
2017-03-20T05:28:58.051Z,0
2017-03-20T05:30:06.138Z,0
2017-03-20T05:31:14.228Z,0
2017-03-20T05:32:22.309Z,0
2017-03-20T05:33:30.399Z,0
2017-03-20T05:34:38.485Z,0
2017-03-20T05:35:46.578Z,0
2017-03-20T05:36:54.660Z,0
2017-03-20T05:38:02.754Z,0
2017-03-20T05:39:10.844Z,0
2017-03-20T05:40:18.927Z,0
2017-03-20T05:41:27.247Z,0
2017-03-20T05:42:35.104Z,0
2017-03-20T05:43:43.184Z,0
2017-03-20T05:44:51.272Z,0
2017-03-20T05:45:59.380Z,4
2017-03-20T05:47:07.458Z,4
2017-03-20T05:48:15.532Z,0
2017-03-20T05:49:23.619Z,0
2017-03-20T05:50:31.706Z,0
2017-03-20T05:51:40.350Z,0
2017-03-20T05:52:47.876Z,0
2017-03-20T05:53:55.967Z,0
2017-03-20T05:55:04.058Z,0
2017-03-20T05:56:12.134Z,0
2017-03-20T05:57:20.223Z,0
2017-03-20T05:58:28.309Z,4
2017-03-20T05:59:36.408Z,4
2017-03-20T06:00:44.491Z,4
2017-03-20T06:01:52.581Z,0
2017-03-20T06:03:00.669Z,4
2017-03-20T06:04:08.762Z,4
2017-03-20T06:05:16.836Z,0
2017-03-20T06:06:24.924Z,4
2017-03-20T06:07:33.005Z,4
2017-03-20T06:08:41.092Z,4
2017-03-20T06:09:49.181Z,4
2017-03-20T06:10:57.266Z,0
2017-03-20T06:12:05.346Z,4
2017-03-20T06:13:13.435Z,4
2017-03-20T06:14:21.521Z,4
2017-03-20T06:15:29.630Z,4
2017-03-20T06:16:37.690Z,4
2017-03-20T06:17:45.779Z,4
2017-03-20T06:18:54.507Z,4
2017-03-20T06:20:01.951Z,4
2017-03-20T06:21:10.055Z,4
2017-03-20T06:22:18.123Z,4
2017-03-20T06:23:26.211Z,8
2017-03-20T06:24:34.288Z,8
2017-03-20T06:25:42.374Z,4
2017-03-20T06:26:50.472Z,4
2017-03-20T06:27:58.561Z,8
2017-03-20T06:29:06.727Z,4
2017-03-20T06:30:14.732Z,8
2017-03-20T06:31:22.814Z,8
2017-03-20T06:32:31.015Z,8
2017-03-20T06:33:38.995Z,8
2017-03-20T06:34:47.081Z,8
2017-03-20T06:35:55.165Z,8
2017-03-20T06:37:03.261Z,8
2017-03-20T06:38:11.343Z,12
2017-03-20T06:39:19.563Z,12
2017-03-20T06:40:28.093Z,12
2017-03-20T06:41:35.603Z,8
2017-03-20T06:42:43.683Z,8
2017-03-20T06:43:51.768Z,12
2017-03-20T06:44:59.856Z,12
2017-03-20T06:46:07.941Z,12
2017-03-20T06:47:16.026Z,12
2017-03-20T06:48:24.110Z,12
2017-03-20T06:49:32.198Z,8
2017-03-20T06:50:40.291Z,8
2017-03-20T06:51:48.371Z,12
2017-03-20T06:52:56.463Z,8
2017-03-20T06:54:04.555Z,12
2017-03-20T06:55:12.644Z,8
2017-03-20T06:56:20.733Z,12
2017-03-20T06:57:28.818Z,12
2017-03-20T06:58:36.904Z,12
2017-03-20T06:59:44.992Z,8
2017-03-20T07:00:53.071Z,16
2017-03-20T07:02:01.158Z,12
2017-03-20T07:03:09.242Z,12
2017-03-20T07:04:17.330Z,12
2017-03-20T07:05:25.416Z,12
2017-03-20T07:06:33.502Z,8
2017-03-20T07:07:41.585Z,12
2017-03-20T07:08:49.674Z,12
2017-03-20T07:09:57.763Z,12
2017-03-20T07:11:05.847Z,16
2017-03-20T07:12:13.939Z,12
2017-03-20T07:13:22.023Z,16
2017-03-20T07:14:30.115Z,16
2017-03-20T07:15:38.195Z,16
2017-03-20T07:16:46.316Z,20
2017-03-20T07:17:54.374Z,20
2017-03-20T07:19:02.452Z,24
2017-03-20T07:20:10.542Z,24
2017-03-20T07:21:18.629Z,24
2017-03-20T07:22:26.708Z,28
2017-03-20T07:23:34.792Z,24
2017-03-20T07:24:42.883Z,28
2017-03-20T07:25:50.977Z,24
2017-03-20T07:26:59.069Z,24
2017-03-20T07:28:07.158Z,24
2017-03-20T07:29:15.253Z,28
2017-03-20T07:30:23.333Z,24
2017-03-20T07:31:31.424Z,28
2017-03-20T07:32:39.510Z,28
2017-03-20T07:33:47.598Z,24
2017-03-20T07:34:55.686Z,24
2017-03-20T07:36:03.777Z,24
2017-03-20T07:37:11.863Z,20
2017-03-20T07:38:19.951Z,20
2017-03-20T07:39:28.035Z,16
2017-03-20T07:40:36.126Z,16
2017-03-20T07:41:44.213Z,16
2017-03-20T07:42:52.307Z,16
2017-03-20T07:44:00.419Z,16
2017-03-20T07:45:08.475Z,16
2017-03-20T07:46:16.612Z,16
2017-03-20T07:47:24.642Z,12
2017-03-20T07:48:32.729Z,12
2017-03-20T07:49:40.818Z,12
2017-03-20T07:50:48.898Z,16
2017-03-20T07:51:56.991Z,20
2017-03-20T07:53:05.074Z,20
2017-03-20T07:54:13.156Z,24
2017-03-20T07:55:21.241Z,24
2017-03-20T07:56:29.328Z,24
2017-03-20T07:57:37.412Z,20
2017-03-20T07:58:45.504Z,24
2017-03-20T07:59:53.595Z,24
2017-03-20T08:01:01.685Z,20
2017-03-20T08:02:09.768Z,20
2017-03-20T08:03:17.857Z,20
2017-03-20T08:04:25.940Z,20
2017-03-20T08:05:34.027Z,20
2017-03-20T08:06:42.112Z,16
2017-03-20T08:07:50.204Z,16
2017-03-20T08:08:58.293Z,16
2017-03-20T08:10:06.373Z,20
2017-03-20T08:11:14.463Z,24
2017-03-20T08:12:22.553Z,24
2017-03-20T08:13:30.634Z,24
2017-03-20T08:14:38.717Z,28
2017-03-20T08:15:46.805Z,24
2017-03-20T08:16:54.889Z,24
2017-03-20T08:18:02.975Z,32
2017-03-20T08:19:11.065Z,32
2017-03-20T08:20:19.150Z,24
2017-03-20T08:21:27.232Z,20
2017-03-20T08:22:35.318Z,24
2017-03-20T08:23:43.408Z,20
2017-03-20T08:24:51.498Z,16
2017-03-20T08:25:59.587Z,20
2017-03-20T08:27:07.662Z,16
2017-03-20T08:28:15.746Z,16
2017-03-20T08:29:23.841Z,16
2017-03-20T08:30:31.923Z,20
2017-03-20T08:31:40.012Z,20
2017-03-20T08:32:48.122Z,20
2017-03-20T08:33:56.178Z,20
2017-03-20T08:35:04.270Z,20
2017-03-20T08:36:12.352Z,24
2017-03-20T08:37:20.439Z,24
2017-03-20T08:38:28.522Z,28
2017-03-20T08:39:36.616Z,28
2017-03-20T08:40:44.704Z,28
2017-03-20T08:41:52.793Z,28
2017-03-20T08:43:00.876Z,32
2017-03-20T08:44:08.966Z,24
2017-03-20T08:45:17.046Z,32
2017-03-20T08:46:25.132Z,40
2017-03-20T08:47:33.221Z,40
2017-03-20T08:48:41.305Z,36
2017-03-20T08:49:49.437Z,40
2017-03-20T08:50:57.476Z,48
2017-03-20T08:52:05.559Z,40
2017-03-20T08:53:13.645Z,32
2017-03-20T08:54:21.729Z,44
2017-03-20T08:55:29.817Z,48
2017-03-20T08:56:37.898Z,44
2017-03-20T08:57:45.983Z,40
2017-03-20T08:58:54.072Z,40
2017-03-20T09:00:02.158Z,40
2017-03-20T09:01:10.240Z,36
2017-03-20T09:02:18.323Z,44
2017-03-20T09:03:26.413Z,44
2017-03-20T09:04:34.498Z,44
2017-03-20T09:05:42.580Z,48
2017-03-20T09:06:50.701Z,48
2017-03-20T09:07:58.756Z,52
2017-03-20T09:09:06.842Z,56
2017-03-20T09:10:14.930Z,64
2017-03-20T09:11:23.013Z,56
2017-03-20T09:12:31.098Z,56
2017-03-20T09:13:39.180Z,56
2017-03-20T09:14:47.269Z,60
2017-03-20T09:15:55.353Z,52
2017-03-20T09:17:03.440Z,56
2017-03-20T09:18:11.533Z,52
2017-03-20T09:19:19.617Z,52
2017-03-20T09:20:27.700Z,48
2017-03-20T09:21:35.785Z,40
2017-03-20T09:22:43.871Z,40
2017-03-20T09:23:51.958Z,32
2017-03-20T09:25:00.039Z,28
2017-03-20T09:26:08.129Z,24
2017-03-20T09:27:16.216Z,20
2017-03-20T09:28:24.301Z,28
2017-03-20T09:29:32.384Z,32
2017-03-20T09:30:40.471Z,40
2017-03-20T09:31:48.561Z,48
2017-03-20T09:32:56.643Z,48
2017-03-20T09:34:04.732Z,44
2017-03-20T09:35:12.820Z,48
2017-03-20T09:36:20.907Z,52
2017-03-20T09:37:28.983Z,44
2017-03-20T09:38:37.074Z,44
2017-03-20T09:39:45.161Z,40
2017-03-20T09:40:53.242Z,48
2017-03-20T09:42:01.330Z,52
2017-03-20T09:43:09.426Z,48
2017-03-20T09:44:17.496Z,52
2017-03-20T09:45:25.582Z,56
2017-03-20T09:46:33.669Z,52
2017-03-20T09:47:41.755Z,56
2017-03-20T09:48:49.836Z,52
2017-03-20T09:49:57.929Z,60
2017-03-20T09:51:06.018Z,56
2017-03-20T09:52:14.103Z,56
2017-03-20T09:53:22.181Z,64
2017-03-20T09:54:30.274Z,64
2017-03-20T09:55:38.354Z,92
2017-03-20T09:56:46.448Z,60
2017-03-20T09:57:54.530Z,68
2017-03-20T09:59:02.613Z,76
2017-03-20T10:00:10.693Z,68
2017-03-20T10:01:18.779Z,64
2017-03-20T10:02:26.867Z,68
2017-03-20T10:03:34.952Z,84
2017-03-20T10:04:43.041Z,76
2017-03-20T10:05:51.125Z,76
2017-03-20T10:06:59.209Z,64
2017-03-20T10:08:07.291Z,72
2017-03-20T10:09:15.379Z,88
2017-03-20T10:10:23.466Z,88
2017-03-20T10:11:31.551Z,60
2017-03-20T10:12:39.636Z,96
2017-03-20T10:13:47.724Z,60
2017-03-20T10:14:55.816Z,56
2017-03-20T10:16:03.923Z,68
2017-03-20T10:17:11.981Z,84
2017-03-20T10:18:20.068Z,80
2017-03-20T10:19:28.150Z,60
2017-03-20T10:20:36.235Z,60
2017-03-20T10:21:44.323Z,60
2017-03-20T10:22:52.408Z,64
2017-03-20T10:24:00.491Z,64
2017-03-20T10:25:08.579Z,76
2017-03-20T10:26:16.664Z,64
2017-03-20T10:27:24.751Z,72
2017-03-20T10:28:32.834Z,72
2017-03-20T10:29:40.923Z,64
2017-03-20T10:30:49.039Z,56
2017-03-20T10:31:57.093Z,76
2017-03-20T10:33:05.176Z,92
2017-03-20T10:34:13.260Z,60
2017-03-20T10:35:21.347Z,56
2017-03-20T10:36:29.428Z,56
2017-03-20T10:37:37.522Z,56
2017-03-20T10:38:45.608Z,52
2017-03-20T10:39:53.695Z,68
2017-03-20T10:41:01.781Z,68
2017-03-20T10:42:09.867Z,84
2017-03-20T10:43:17.944Z,68
2017-03-20T10:44:26.027Z,60
2017-03-20T10:45:34.120Z,84
2017-03-20T10:46:42.204Z,52
2017-03-20T10:47:50.288Z,56
2017-03-20T10:48:58.376Z,72
2017-03-20T10:50:06.462Z,76
2017-03-20T10:51:14.548Z,80
2017-03-20T10:52:22.632Z,76
2017-03-20T10:53:30.718Z,80
2017-03-20T10:54:38.809Z,76
2017-03-20T10:55:46.892Z,56
2017-03-20T10:56:54.981Z,52
2017-03-20T10:58:03.067Z,76
2017-03-20T10:59:11.148Z,88
2017-03-20T11:00:19.237Z,84
2017-03-20T11:01:27.323Z,88
2017-03-20T11:02:35.410Z,84
2017-03-20T11:03:43.492Z,88
2017-03-20T11:04:51.581Z,80
2017-03-20T11:05:59.665Z,68
2017-03-20T11:07:07.748Z,64
2017-03-20T11:08:15.832Z,60
2017-03-20T11:09:23.926Z,64
2017-03-20T11:10:32.006Z,56
2017-03-20T11:11:40.093Z,56
2017-03-20T11:12:48.182Z,56
2017-03-20T11:13:56.269Z,52
2017-03-20T11:15:04.353Z,52
2017-03-20T11:16:12.439Z,52
2017-03-20T11:17:20.531Z,56
2017-03-20T11:18:28.624Z,60
2017-03-20T11:19:36.715Z,80
2017-03-20T11:20:44.794Z,60
2017-03-20T11:21:52.879Z,56
2017-03-20T11:23:00.963Z,56
2017-03-20T11:24:09.051Z,56
2017-03-20T11:25:17.144Z,68
2017-03-20T11:26:25.227Z,72
2017-03-20T11:27:33.309Z,76
2017-03-20T11:28:41.401Z,60
2017-03-20T11:29:49.486Z,56
2017-03-20T11:30:57.569Z,56
2017-03-20T11:32:05.666Z,52
2017-03-20T11:33:13.745Z,72
2017-03-20T11:34:21.828Z,52
2017-03-20T11:35:29.913Z,52
2017-03-20T11:36:38.009Z,68
2017-03-20T11:37:46.084Z,40
2017-03-20T11:38:54.170Z,40
2017-03-20T11:40:02.258Z,44
2017-03-20T11:41:10.343Z,40
2017-03-20T11:42:18.422Z,48
2017-03-20T11:43:26.512Z,56
2017-03-20T11:44:34.602Z,76
2017-03-20T11:45:42.687Z,52
2017-03-20T11:46:50.769Z,56
2017-03-20T11:47:58.863Z,48
2017-03-20T11:49:06.947Z,48
2017-03-20T11:50:15.029Z,64
2017-03-20T11:51:23.109Z,56
2017-03-20T11:52:31.208Z,52
2017-03-20T11:53:39.288Z,52
2017-03-20T11:54:47.367Z,44
2017-03-20T11:55:55.459Z,48
2017-03-20T11:57:03.546Z,48
2017-03-20T11:58:11.628Z,48
2017-03-20T11:59:19.715Z,40
2017-03-20T12:00:27.801Z,48
2017-03-20T12:01:35.887Z,48
2017-03-20T12:02:43.969Z,44
2017-03-20T12:03:52.056Z,36
2017-03-20T12:05:00.144Z,36
2017-03-20T12:06:08.223Z,36
2017-03-20T12:07:16.310Z,44
2017-03-20T12:08:24.403Z,40
2017-03-20T12:09:32.561Z,44
2017-03-20T12:10:40.570Z,36
2017-03-20T12:11:48.663Z,48
2017-03-20T12:12:56.749Z,56
2017-03-20T12:14:04.841Z,36
2017-03-20T12:15:12.927Z,44
2017-03-20T12:16:21.015Z,60
2017-03-20T12:17:29.102Z,56
2017-03-20T12:18:37.182Z,48
2017-03-20T12:19:45.271Z,72
2017-03-20T12:20:53.358Z,48
2017-03-20T12:22:01.439Z,52
2017-03-20T12:23:09.528Z,56
2017-03-20T12:24:17.616Z,36
2017-03-20T12:25:25.700Z,56
2017-03-20T12:26:33.781Z,44
2017-03-20T12:27:41.877Z,36
2017-03-20T12:28:49.971Z,36
2017-03-20T12:29:58.052Z,60
2017-03-20T12:31:06.142Z,64
2017-03-20T12:32:14.228Z,52
2017-03-20T12:33:22.310Z,48
2017-03-20T12:34:30.396Z,68
2017-03-20T12:35:38.485Z,40
2017-03-20T12:36:46.573Z,40
2017-03-20T12:37:54.654Z,40
2017-03-20T12:39:02.746Z,60
2017-03-20T12:40:10.834Z,52
2017-03-20T12:41:18.917Z,36
2017-03-20T12:42:27.001Z,56
2017-03-20T12:43:35.089Z,52
2017-03-20T12:44:43.170Z,52
2017-03-20T12:45:51.259Z,52
2017-03-20T12:46:59.346Z,52
2017-03-20T12:48:07.432Z,56
2017-03-20T12:49:15.519Z,60
2017-03-20T12:50:23.602Z,52
2017-03-20T12:51:31.691Z,64
2017-03-20T12:52:39.777Z,60
2017-03-20T12:53:47.864Z,60
2017-03-20T12:54:55.952Z,60
2017-03-20T12:56:04.034Z,52
2017-03-20T12:57:12.116Z,52
2017-03-20T12:58:20.202Z,60
2017-03-20T12:59:28.291Z,52
2017-03-20T13:00:36.379Z,60
2017-03-20T13:01:44.460Z,60
2017-03-20T13:02:52.550Z,48
2017-03-20T13:04:00.635Z,52
2017-03-20T13:05:08.723Z,56
2017-03-20T13:06:16.807Z,44
2017-03-20T13:07:24.893Z,40
2017-03-20T13:08:32.976Z,44
2017-03-20T13:09:41.063Z,52
2017-03-20T13:10:49.157Z,48
2017-03-20T13:11:57.237Z,56
2017-03-20T13:13:05.330Z,48
2017-03-20T13:14:13.404Z,48
2017-03-20T13:15:21.493Z,44
2017-03-20T13:16:29.577Z,40
2017-03-20T13:17:37.663Z,36
2017-03-20T13:18:45.749Z,48
2017-03-20T13:19:53.833Z,48
2017-03-20T13:21:01.919Z,48
2017-03-20T13:22:10.009Z,56
2017-03-20T13:23:18.092Z,52
2017-03-20T13:24:26.178Z,44
2017-03-20T13:25:34.261Z,44
2017-03-20T13:26:42.353Z,48
2017-03-20T13:27:50.436Z,52
2017-03-20T13:28:58.524Z,48
2017-03-20T13:30:06.610Z,44
2017-03-20T13:31:14.694Z,44
2017-03-20T13:32:22.782Z,44
2017-03-20T13:33:30.876Z,44
2017-03-20T13:34:38.962Z,44
2017-03-20T13:35:47.050Z,48
2017-03-20T13:36:55.127Z,48
2017-03-20T13:38:03.214Z,48
2017-03-20T13:39:11.303Z,48
2017-03-20T13:40:19.390Z,44
2017-03-20T13:41:27.474Z,44
2017-03-20T13:42:35.566Z,48
2017-03-20T13:43:43.655Z,48
2017-03-20T13:44:51.739Z,48
2017-03-20T13:45:59.829Z,48
2017-03-20T13:47:07.916Z,48
2017-03-20T13:48:16.016Z,52
2017-03-20T13:49:24.087Z,48
2017-03-20T13:50:32.181Z,48
2017-03-20T13:51:40.267Z,52
2017-03-20T13:52:48.354Z,48
2017-03-20T13:53:56.442Z,52
2017-03-20T13:55:04.527Z,48
2017-03-20T13:56:12.618Z,48
2017-03-20T13:57:20.697Z,40
2017-03-20T13:58:28.788Z,48
2017-03-20T13:59:36.876Z,52
2017-03-20T14:00:44.959Z,52
2017-03-20T14:01:53.047Z,56
2017-03-20T14:03:01.133Z,56
2017-03-20T14:04:09.218Z,56
2017-03-20T14:05:17.297Z,56
2017-03-20T14:06:25.386Z,56
2017-03-20T14:07:33.476Z,56
2017-03-20T14:08:41.561Z,56
2017-03-20T14:09:49.650Z,56
2017-03-20T14:10:57.744Z,56
2017-03-20T14:12:05.821Z,56
2017-03-20T14:13:13.911Z,60
2017-03-20T14:14:21.995Z,56
2017-03-20T14:15:30.081Z,56
2017-03-20T14:16:38.160Z,60
2017-03-20T14:17:46.249Z,56
2017-03-20T14:18:54.335Z,56
2017-03-20T14:20:02.417Z,52
2017-03-20T14:21:10.504Z,52
2017-03-20T14:22:18.591Z,52
2017-03-20T14:23:26.679Z,52
2017-03-20T14:24:34.761Z,48
2017-03-20T14:25:42.851Z,44
2017-03-20T14:26:50.934Z,48
2017-03-20T14:27:59.031Z,44
2017-03-20T14:29:07.113Z,44
2017-03-20T14:30:15.196Z,40
2017-03-20T14:31:23.279Z,48
2017-03-20T14:32:31.366Z,44
2017-03-20T14:33:39.456Z,44
2017-03-20T14:34:47.541Z,44
2017-03-20T14:35:55.623Z,40
2017-03-20T14:37:03.710Z,44
2017-03-20T14:38:11.831Z,44
2017-03-20T14:39:19.885Z,44
2017-03-20T14:40:27.967Z,48
2017-03-20T14:41:36.060Z,40
2017-03-20T14:42:44.146Z,40
2017-03-20T14:43:52.227Z,36
2017-03-20T14:45:00.317Z,40
2017-03-20T14:46:08.401Z,44
2017-03-20T14:47:16.487Z,48
2017-03-20T14:48:24.573Z,44
2017-03-20T14:49:32.659Z,44
2017-03-20T14:50:40.745Z,40
2017-03-20T14:51:48.833Z,44
2017-03-20T14:52:56.920Z,40
2017-03-20T14:54:05.004Z,36
2017-03-20T14:55:13.132Z,44
2017-03-20T14:56:21.174Z,44
2017-03-20T14:57:29.263Z,48
2017-03-20T14:58:37.351Z,52
2017-03-20T14:59:45.432Z,52
2017-03-20T15:00:53.523Z,52
2017-03-20T15:02:01.607Z,48
2017-03-20T15:03:09.699Z,44
2017-03-20T15:04:17.785Z,40
2017-03-20T15:05:25.875Z,48
2017-03-20T15:06:33.957Z,48
2017-03-20T15:07:42.041Z,56
2017-03-20T15:08:50.128Z,60
2017-03-20T15:09:58.216Z,56
2017-03-20T15:11:06.298Z,52
2017-03-20T15:12:14.384Z,48
2017-03-20T15:13:22.472Z,44
2017-03-20T15:14:30.560Z,44
2017-03-20T15:15:38.647Z,40
2017-03-20T15:16:46.732Z,36
2017-03-20T15:17:54.820Z,36
2017-03-20T15:19:02.901Z,36
2017-03-20T15:20:10.985Z,36
2017-03-20T15:21:19.076Z,32
2017-03-20T15:22:27.163Z,32
2017-03-20T15:23:35.245Z,28
2017-03-20T15:24:43.335Z,32
2017-03-20T15:25:51.427Z,32
2017-03-20T15:26:59.507Z,28
2017-03-20T15:28:07.597Z,28
2017-03-20T15:29:15.680Z,28
2017-03-20T15:30:23.766Z,32
2017-03-20T15:31:31.848Z,28
2017-03-20T15:32:39.940Z,28
2017-03-20T15:33:48.025Z,32
2017-03-20T15:34:56.107Z,32
2017-03-20T15:36:04.194Z,28
2017-03-20T15:37:12.282Z,32
2017-03-20T15:38:20.368Z,32
2017-03-20T15:39:28.452Z,36
2017-03-20T15:40:36.547Z,32
2017-03-20T15:41:44.629Z,28
2017-03-20T15:42:52.718Z,28
2017-03-20T15:44:00.809Z,24
2017-03-20T15:45:08.898Z,28
2017-03-20T15:46:16.980Z,24
2017-03-20T15:47:25.065Z,24
2017-03-20T15:48:33.156Z,20
2017-03-20T15:49:41.242Z,24
2017-03-20T15:50:49.325Z,28
2017-03-20T15:51:57.411Z,24
2017-03-20T15:53:05.499Z,24
2017-03-20T15:54:13.591Z,24
2017-03-20T15:55:21.673Z,24
2017-03-20T15:56:29.764Z,24
2017-03-20T15:57:37.854Z,28
2017-03-20T15:58:45.938Z,28
2017-03-20T15:59:54.024Z,24
2017-03-20T16:01:02.108Z,24
2017-03-20T16:02:10.196Z,24
2017-03-20T16:03:18.277Z,24
2017-03-20T16:04:26.366Z,20
2017-03-20T16:05:34.452Z,24
2017-03-20T16:06:42.533Z,24
2017-03-20T16:07:50.625Z,24
2017-03-20T16:08:58.710Z,24
2017-03-20T16:10:06.794Z,24
2017-03-20T16:11:14.879Z,24
2017-03-20T16:12:22.968Z,20
2017-03-20T16:13:31.057Z,20
2017-03-20T16:14:39.139Z,20
2017-03-20T16:15:47.232Z,20
2017-03-20T16:16:55.318Z,16
2017-03-20T16:18:03.398Z,16
2017-03-20T16:19:11.488Z,20
2017-03-20T16:20:19.575Z,16
2017-03-20T16:21:27.657Z,16
2017-03-20T16:22:35.742Z,16
2017-03-20T16:23:43.830Z,16
2017-03-20T16:24:51.918Z,16
2017-03-20T16:26:00.004Z,16